Terminal Aerodrome Forecast
Issued by NWS

Home | Current Version | Previous Version | Text Only | Print | Product List | Glossary On
Versions: 1 2 3 4 5 6 7 8 9 10 11 12
387
FTUS45 KTFX 231122
TAFHLN
TAF
KHLN 231122Z 2312/2412 33011G21KT P6SM -RASN SCT008 OVC025
      TEMPO 2312/2316 4SM -SNRA BKN020
     FM231700 35010KT P6SM VCSH SCT015 OVC050
     FM232100 01007KT P6SM SCT025 OVC050 PROB30 2321/2324 4SM -RA
      BKN040
     FM240100 02008KT P6SM FEW030 SCT090=

USA.gov is the U.S. government's official web portal to all federal, state and local government web resources and services.